CheckWX is a tool to help pilots better visualize weather data.  It is not intended as a substitute for an official pre-flight weather briefing.

12:31:21 UTC

KBVU METAR
Boulder City Municipal Airport
Boulder City, Nevada, USA
Current

16 mins ago

KBVU 131215Z AUTO 00000KT 10SM CLR 05/03 A3020 RMK AO2
Observed
Dec-13 @ 12:15 UTC
Visibility
10 SM
Flight Rules
VFR
Cloud Levels
  • Clear skies
Temperature
C / 41°F
Dewpoint
C / 37°F
Humidity
87%
Altimeter
30.2" Hg
Pressure
1022.72 hPa
Previous

36 mins ago

KBVU 131155Z AUTO 00000KT 10SM CLR 07/03 A3021 RMK AO2
Observed
Dec-13 @ 11:55 UTC
Visibility
10 SM
Flight Rules
VFR
Cloud Levels
  • Clear skies
Temperature
C / 45°F
Dewpoint
C / 37°F
Humidity
76%
Altimeter
30.21" Hg
Pressure
1023.02 hPa
Previous

56 mins ago

KBVU 131135Z AUTO 00000KT 10SM CLR 07/03 A3024 RMK AO2
Observed
Dec-13 @ 11:35 UTC
Visibility
10 SM
Flight Rules
VFR
Cloud Levels
  • Clear skies
Temperature
C / 45°F
Dewpoint
C / 37°F
Humidity
76%
Altimeter
30.24" Hg
Pressure
1024.02 hPa